sensor_id;sensor_type;location;lat;lon;timestamp;pressure;altitude;pressure_sealevel;temperature
12430;BMP280;6279;42.192;24.326;2023-03-29T00:02:19;99514.38;;;3.48
12430;BMP280;6279;42.192;24.326;2023-03-29T00:04:45;99519.97;;;3.42
12430;BMP280;6279;42.192;24.326;2023-03-29T00:07:11;99521.59;;;3.43
12430;BMP280;6279;42.192;24.326;2023-03-29T00:09:38;99518.34;;;3.41
12430;BMP280;6279;42.192;24.326;2023-03-29T00:12:04;99526.34;;;3.36
12430;BMP280;6279;42.192;24.326;2023-03-29T00:14:29;99517.13;;;3.34
12430;BMP280;6279;42.192;24.326;2023-03-29T00:16:55;99522.47;;;3.31
12430;BMP280;6279;42.192;24.326;2023-03-29T00:19:21;99532.16;;;3.28
12430;BMP280;6279;42.192;24.326;2023-03-29T00:21:46;99527.50;;;3.32
12430;BMP280;6279;42.192;24.326;2023-03-29T00:24:12;99532.53;;;3.34
12430;BMP280;6279;42.192;24.326;2023-03-29T00:26:37;99532.31;;;3.37
12430;BMP280;6279;42.192;24.326;2023-03-29T00:29:03;99528.69;;;3.39
12430;BMP280;6279;42.192;24.326;2023-03-29T00:31:28;99534.41;;;3.32
12430;BMP280;6279;42.192;24.326;2023-03-29T00:33:53;99530.88;;;3.22
12430;BMP280;6279;42.192;24.326;2023-03-29T00:36:19;99528.72;;;3.16
12430;BMP280;6279;42.192;24.326;2023-03-29T00:38:46;99538.06;;;3.17
12430;BMP280;6279;42.192;24.326;2023-03-29T00:41:12;99532.94;;;3.17
12430;BMP280;6279;42.192;24.326;2023-03-29T00:43:54;99528.50;;;3.19
12430;BMP280;6279;42.192;24.326;2023-03-29T00:46:21;99535.69;;;3.27
12430;BMP280;6279;42.192;24.326;2023-03-29T00:48:47;99535.06;;;3.23
12430;BMP280;6279;42.192;24.326;2023-03-29T00:51:14;99540.47;;;3.08
12430;BMP280;6279;42.192;24.326;2023-03-29T00:53:44;99543.28;;;3.05
12430;BMP280;6279;42.192;24.326;2023-03-29T00:56:34;99549.75;;;2.98
12430;BMP280;6279;42.192;24.326;2023-03-29T00:59:14;99553.59;;;2.93
12430;BMP280;6279;42.192;24.326;2023-03-29T01:01:48;99565.38;;;2.95
12430;BMP280;6279;42.192;24.326;2023-03-29T01:04:38;99568.06;;;2.94
12430;BMP280;6279;42.192;24.326;2023-03-29T01:07:17;99565.94;;;2.88
12430;BMP280;6279;42.192;24.326;2023-03-29T01:09:52;99570.97;;;2.77
12430;BMP280;6279;42.192;24.326;2023-03-29T01:12:30;99571.81;;;2.65
12430;BMP280;6279;42.192;24.326;2023-03-29T01:15:03;99570.69;;;2.69
12430;BMP280;6279;42.192;24.326;2023-03-29T01:17:30;99571.72;;;2.67
12430;BMP280;6279;42.192;24.326;2023-03-29T01:20:04;99576.03;;;2.66
12430;BMP280;6279;42.192;24.326;2023-03-29T01:27:49;99582.91;;;2.66
12430;BMP280;6279;42.192;24.326;2023-03-29T01:30:25;99583.13;;;2.63
12430;BMP280;6279;42.192;24.326;2023-03-29T01:33:06;99584.75;;;2.76
12430;BMP280;6279;42.192;24.326;2023-03-29T01:35:43;99580.44;;;2.64
12430;BMP280;6279;42.192;24.326;2023-03-29T01:38:16;99575.91;;;2.68
12430;BMP280;6279;42.192;24.326;2023-03-29T01:40:43;99582.50;;;2.60
12430;BMP280;6279;42.192;24.326;2023-03-29T01:43:30;99584.25;;;2.59
12430;BMP280;6279;42.192;24.326;2023-03-29T01:48:47;99593.41;;;2.39
12430;BMP280;6279;42.192;24.326;2023-03-29T01:51:36;99593.63;;;2.36
12430;BMP280;6279;42.192;24.326;2023-03-29T01:54:08;99608.81;;;2.39
12430;BMP280;6279;42.192;24.326;2023-03-29T01:56:39;99603.47;;;2.29
12430;BMP280;6279;42.192;24.326;2023-03-29T01:59:12;99603.56;;;2.28
12430;BMP280;6279;42.192;24.326;2023-03-29T02:01:42;99612.50;;;2.22
12430;BMP280;6279;42.192;24.326;2023-03-29T02:04:17;99615.78;;;2.24
12430;BMP280;6279;42.192;24.326;2023-03-29T02:06:44;99623.78;;;2.32
12430;BMP280;6279;42.192;24.326;2023-03-29T02:09:10;99627.38;;;2.30
12430;BMP280;6279;42.192;24.326;2023-03-29T02:11:37;99629.78;;;2.33
12430;BMP280;6279;42.192;24.326;2023-03-29T02:14:03;99621.94;;;2.22
12430;BMP280;6279;42.192;24.326;2023-03-29T02:16:36;99627.41;;;2.18
12430;BMP280;6279;42.192;24.326;2023-03-29T02:19:04;99626.84;;;2.13
12430;BMP280;6279;42.192;24.326;2023-03-29T02:24:05;99633.97;;;2.21
12430;BMP280;6279;42.192;24.326;2023-03-29T02:26:31;99641.53;;;2.11
12430;BMP280;6279;42.192;24.326;2023-03-29T02:28:57;99644.63;;;2.16
12430;BMP280;6279;42.192;24.326;2023-03-29T02:31:52;99643.97;;;2.12
12430;BMP280;6279;42.192;24.326;2023-03-29T02:34:28;99650.03;;;2.11
12430;BMP280;6279;42.192;24.326;2023-03-29T02:37:01;99656.00;;;2.12
12430;BMP280;6279;42.192;24.326;2023-03-29T02:39:29;99650.84;;;2.12
12430;BMP280;6279;42.192;24.326;2023-03-29T02:41:56;99658.44;;;2.13
12430;BMP280;6279;42.192;24.326;2023-03-29T02:44:27;99658.25;;;2.04
12430;BMP280;6279;42.192;24.326;2023-03-29T02:47:00;99661.84;;;2.14
12430;BMP280;6279;42.192;24.326;2023-03-29T02:49:27;99661.94;;;2.12
12430;BMP280;6279;42.192;24.326;2023-03-29T02:51:56;99659.47;;;2.11
12430;BMP280;6279;42.192;24.326;2023-03-29T02:54:26;99664.59;;;2.11
12430;BMP280;6279;42.192;24.326;2023-03-29T02:57:00;99653.41;;;1.99
12430;BMP280;6279;42.192;24.326;2023-03-29T02:59:26;99670.72;;;1.96
12430;BMP280;6279;42.192;24.326;2023-03-29T03:01:54;99670.50;;;1.87
12430;BMP280;6279;42.192;24.326;2023-03-29T03:04:19;99676.47;;;1.87
12430;BMP280;6279;42.192;24.326;2023-03-29T03:06:46;99680.97;;;1.96
12430;BMP280;6279;42.192;24.326;2023-03-29T03:09:12;99681.63;;;1.99
12430;BMP280;6279;42.192;24.326;2023-03-29T03:11:38;99690.72;;;1.91
12430;BMP280;6279;42.192;24.326;2023-03-29T03:14:03;99694.00;;;1.93
12430;BMP280;6279;42.192;24.326;2023-03-29T03:16:30;99684.69;;;1.92
12430;BMP280;6279;42.192;24.326;2023-03-29T03:18:55;99691.13;;;1.85
12430;BMP280;6279;42.192;24.326;2023-03-29T03:21:21;99688.16;;;1.91
12430;BMP280;6279;42.192;24.326;2023-03-29T03:23:47;99692.06;;;1.96
12430;BMP280;6279;42.192;24.326;2023-03-29T03:26:13;99703.19;;;1.97
12430;BMP280;6279;42.192;24.326;2023-03-29T03:28:39;99695.75;;;1.93
12430;BMP280;6279;42.192;24.326;2023-03-29T03:31:05;99691.22;;;1.84
12430;BMP280;6279;42.192;24.326;2023-03-29T03:33:30;99700.41;;;1.74
12430;BMP280;6279;42.192;24.326;2023-03-29T03:35:56;99706.03;;;1.67
12430;BMP280;6279;42.192;24.326;2023-03-29T03:38:29;99711.97;;;1.67
12430;BMP280;6279;42.192;24.326;2023-03-29T03:40:55;99707.78;;;1.66
12430;BMP280;6279;42.192;24.326;2023-03-29T03:43:21;99709.84;;;1.74
12430;BMP280;6279;42.192;24.326;2023-03-29T03:45:47;99713.69;;;1.80
12430;BMP280;6279;42.192;24.326;2023-03-29T03:48:13;99721.91;;;1.85
12430;BMP280;6279;42.192;24.326;2023-03-29T03:50:38;99722.63;;;1.87
12430;BMP280;6279;42.192;24.326;2023-03-29T03:53:05;99718.13;;;1.91
12430;BMP280;6279;42.192;24.326;2023-03-29T03:55:31;99718.94;;;1.91
12430;BMP280;6279;42.192;24.326;2023-03-29T03:57:57;99718.13;;;1.91
12430;BMP280;6279;42.192;24.326;2023-03-29T04:00:24;99724.47;;;1.85
12430;BMP280;6279;42.192;24.326;2023-03-29T04:02:49;99730.94;;;1.91
12430;BMP280;6279;42.192;24.326;2023-03-29T04:05:15;99727.56;;;1.90
12430;BMP280;6279;42.192;24.326;2023-03-29T04:07:41;99727.94;;;1.84
12430;BMP280;6279;42.192;24.326;2023-03-29T04:10:07;99729.91;;;1.93
12430;BMP280;6279;42.192;24.326;2023-03-29T04:12:34;99734.13;;;1.94
12430;BMP280;6279;42.192;24.326;2023-03-29T04:15:00;99740.81;;;1.96
12430;BMP280;6279;42.192;24.326;2023-03-29T04:17:26;99735.78;;;1.95
12430;BMP280;6279;42.192;24.326;2023-03-29T04:19:51;99740.53;;;2.01
12430;BMP280;6279;42.192;24.326;2023-03-29T04:22:17;99734.81;;;2.10
12430;BMP280;6279;42.192;24.326;2023-03-29T04:24:42;99735.78;;;2.21
12430;BMP280;6279;42.192;24.326;2023-03-29T04:27:08;99743.47;;;2.21
12430;BMP280;6279;42.192;24.326;2023-03-29T04:29:33;99726.53;;;2.18
12430;BMP280;6279;42.192;24.326;2023-03-29T04:31:59;99745.16;;;2.34
12430;BMP280;6279;42.192;24.326;2023-03-29T04:34:24;99735.50;;;2.50
12430;BMP280;6279;42.192;24.326;2023-03-29T04:36:50;99739.91;;;2.48
12430;BMP280;6279;42.192;24.326;2023-03-29T04:39:15;99735.72;;;2.47
12430;BMP280;6279;42.192;24.326;2023-03-29T04:41:45;99751.34;;;2.56
12430;BMP280;6279;42.192;24.326;2023-03-29T04:44:11;99744.97;;;2.62
12430;BMP280;6279;42.192;24.326;2023-03-29T04:46:38;99747.06;;;2.69
12430;BMP280;6279;42.192;24.326;2023-03-29T04:49:04;99742.22;;;2.77
12430;BMP280;6279;42.192;24.326;2023-03-29T04:51:30;99744.72;;;2.90
12430;BMP280;6279;42.192;24.326;2023-03-29T04:53:55;99758.16;;;2.94
12430;BMP280;6279;42.192;24.326;2023-03-29T04:56:21;99756.00;;;3.12
12430;BMP280;6279;42.192;24.326;2023-03-29T04:58:47;99758.03;;;3.32
12430;BMP280;6279;42.192;24.326;2023-03-29T05:01:13;99764.47;;;3.49
12430;BMP280;6279;42.192;24.326;2023-03-29T05:03:38;99751.09;;;3.57
12430;BMP280;6279;42.192;24.326;2023-03-29T05:06:05;99745.31;;;3.66
12430;BMP280;6279;42.192;24.326;2023-03-29T05:08:33;99749.50;;;3.79
12430;BMP280;6279;42.192;24.326;2023-03-29T05:10:59;99751.19;;;3.91
12430;BMP280;6279;42.192;24.326;2023-03-29T05:13:24;99741.91;;;4.00
12430;BMP280;6279;42.192;24.326;2023-03-29T05:15:49;99751.31;;;4.12
12430;BMP280;6279;42.192;24.326;2023-03-29T05:18:16;99750.00;;;4.30
12430;BMP280;6279;42.192;24.326;2023-03-29T05:20:42;99747.03;;;4.57
12430;BMP280;6279;42.192;24.326;2023-03-29T05:23:07;99744.28;;;4.81
12430;BMP280;6279;42.192;24.326;2023-03-29T05:25:33;99745.41;;;5.11
12430;BMP280;6279;42.192;24.326;2023-03-29T05:27:59;99743.63;;;5.33
12430;BMP280;6279;42.192;24.326;2023-03-29T05:30:25;99736.25;;;5.61
12430;BMP280;6279;42.192;24.326;2023-03-29T05:32:51;99732.72;;;5.84
12430;BMP280;6279;42.192;24.326;2023-03-29T05:35:16;99733.16;;;5.99
12430;BMP280;6279;42.192;24.326;2023-03-29T05:37:42;99733.06;;;6.21
12430;BMP280;6279;42.192;24.326;2023-03-29T05:40:08;99731.72;;;6.37
12430;BMP280;6279;42.192;24.326;2023-03-29T05:42:34;99739.59;;;6.35
12430;BMP280;6279;42.192;24.326;2023-03-29T05:44:59;99739.34;;;6.58
12430;BMP280;6279;42.192;24.326;2023-03-29T05:47:25;99733.63;;;6.75
12430;BMP280;6279;42.192;24.326;2023-03-29T05:49:50;99734.28;;;6.88
12430;BMP280;6279;42.192;24.326;2023-03-29T05:52:16;99730.56;;;7.10
12430;BMP280;6279;42.192;24.326;2023-03-29T05:54:42;99738.50;;;7.38
12430;BMP280;6279;42.192;24.326;2023-03-29T05:57:08;99736.06;;;7.46
12430;BMP280;6279;42.192;24.326;2023-03-29T05:59:33;99739.53;;;7.65
12430;BMP280;6279;42.192;24.326;2023-03-29T06:01:58;99739.63;;;7.93
12430;BMP280;6279;42.192;24.326;2023-03-29T06:04:29;99740.13;;;8.26
12430;BMP280;6279;42.192;24.326;2023-03-29T06:06:55;99735.59;;;8.37
12430;BMP280;6279;42.192;24.326;2023-03-29T06:09:21;99739.03;;;8.47
12430;BMP280;6279;42.192;24.326;2023-03-29T06:11:47;99742.13;;;8.87
12430;BMP280;6279;42.192;24.326;2023-03-29T06:14:12;99740.59;;;9.03
12430;BMP280;6279;42.192;24.326;2023-03-29T06:16:38;99748.66;;;9.45
12430;BMP280;6279;42.192;24.326;2023-03-29T06:19:05;99752.69;;;9.66
12430;BMP280;6279;42.192;24.326;2023-03-29T06:21:31;99751.72;;;9.94
12430;BMP280;6279;42.192;24.326;2023-03-29T06:23:57;99751.25;;;10.07
12430;BMP280;6279;42.192;24.326;2023-03-29T06:26:23;99759.09;;;10.42
12430;BMP280;6279;42.192;24.326;2023-03-29T06:28:49;99757.72;;;10.72
12430;BMP280;6279;42.192;24.326;2023-03-29T06:31:14;99758.56;;;10.55
12430;BMP280;6279;42.192;24.326;2023-03-29T06:33:42;99756.19;;;11.04
12430;BMP280;6279;42.192;24.326;2023-03-29T06:36:09;99756.50;;;11.26
12430;BMP280;6279;42.192;24.326;2023-03-29T06:41:05;99771.50;;;11.49
12430;BMP280;6279;42.192;24.326;2023-03-29T06:43:30;99767.50;;;11.62
12430;BMP280;6279;42.192;24.326;2023-03-29T06:45:57;99766.72;;;11.69
12430;BMP280;6279;42.192;24.326;2023-03-29T06:48:23;99759.06;;;12.08
12430;BMP280;6279;42.192;24.326;2023-03-29T06:50:48;99764.16;;;12.26
12430;BMP280;6279;42.192;24.326;2023-03-29T06:53:14;99770.69;;;12.22
12430;BMP280;6279;42.192;24.326;2023-03-29T06:55:43;99760.53;;;12.75
12430;BMP280;6279;42.192;24.326;2023-03-29T06:58:08;99747.78;;;13.03
12430;BMP280;6279;42.192;24.326;2023-03-29T07:00:35;99772.75;;;12.82
12430;BMP280;6279;42.192;24.326;2023-03-29T07:03:07;99763.13;;;12.83
12430;BMP280;6279;42.192;24.326;2023-03-29T07:05:37;99758.25;;;12.95
12430;BMP280;6279;42.192;24.326;2023-03-29T07:08:06;99759.06;;;12.80
12430;BMP280;6279;42.192;24.326;2023-03-29T07:10:35;99771.59;;;12.85
12430;BMP280;6279;42.192;24.326;2023-03-29T07:13:04;99778.84;;;13.67
12430;BMP280;6279;42.192;24.326;2023-03-29T07:15:31;99769.78;;;13.93
12430;BMP280;6279;42.192;24.326;2023-03-29T07:17:57;99789.50;;;14.41
12430;BMP280;6279;42.192;24.326;2023-03-29T07:20:24;99793.28;;;14.69
12430;BMP280;6279;42.192;24.326;2023-03-29T07:22:51;99778.81;;;15.02
12430;BMP280;6279;42.192;24.326;2023-03-29T07:25:17;99776.97;;;14.81
12430;BMP280;6279;42.192;24.326;2023-03-29T07:27:43;99800.63;;;14.65
12430;BMP280;6279;42.192;24.326;2023-03-29T07:30:12;99801.22;;;14.53
12430;BMP280;6279;42.192;24.326;2023-03-29T07:32:39;99806.63;;;14.51
12430;BMP280;6279;42.192;24.326;2023-03-29T07:35:07;99796.47;;;14.56
12430;BMP280;6279;42.192;24.326;2023-03-29T07:37:34;99806.31;;;14.47
12430;BMP280;6279;42.192;24.326;2023-03-29T07:40:00;99797.81;;;14.74
12430;BMP280;6279;42.192;24.326;2023-03-29T07:42:28;99795.91;;;15.63
12430;BMP280;6279;42.192;24.326;2023-03-29T07:44:54;99788.94;;;15.41
12430;BMP280;6279;42.192;24.326;2023-03-29T07:47:20;99802.13;;;15.12
12430;BMP280;6279;42.192;24.326;2023-03-29T07:49:45;99797.28;;;15.23
12430;BMP280;6279;42.192;24.326;2023-03-29T07:52:11;99802.63;;;16.22
12430;BMP280;6279;42.192;24.326;2023-03-29T07:54:36;99804.44;;;16.56
12430;BMP280;6279;42.192;24.326;2023-03-29T07:57:02;99799.75;;;17.07
12430;BMP280;6279;42.192;24.326;2023-03-29T07:59:27;99796.72;;;17.31
12430;BMP280;6279;42.192;24.326;2023-03-29T08:01:53;99789.78;;;16.82
12430;BMP280;6279;42.192;24.326;2023-03-29T08:04:19;99788.78;;;17.24
12430;BMP280;6279;42.192;24.326;2023-03-29T08:06:45;99782.69;;;17.44
12430;BMP280;6279;42.192;24.326;2023-03-29T08:09:11;99773.84;;;18.18
12430;BMP280;6279;42.192;24.326;2023-03-29T08:11:37;99777.41;;;18.50
12430;BMP280;6279;42.192;24.326;2023-03-29T08:14:04;99783.00;;;17.89
12430;BMP280;6279;42.192;24.326;2023-03-29T08:16:30;99783.81;;;19.00
12430;BMP280;6279;42.192;24.326;2023-03-29T08:18:56;99772.88;;;19.73
12430;BMP280;6279;42.192;24.326;2023-03-29T08:21:21;99779.63;;;20.25
12430;BMP280;6279;42.192;24.326;2023-03-29T08:23:47;99763.06;;;19.93
12430;BMP280;6279;42.192;24.326;2023-03-29T08:26:12;99772.34;;;20.21
12430;BMP280;6279;42.192;24.326;2023-03-29T08:28:40;99754.16;;;19.87
12430;BMP280;6279;42.192;24.326;2023-03-29T08:31:06;99755.25;;;20.66
12430;BMP280;6279;42.192;24.326;2023-03-29T08:33:34;99759.06;;;20.76
12430;BMP280;6279;42.192;24.326;2023-03-29T08:35:59;99758.25;;;20.76
12430;BMP280;6279;42.192;24.326;2023-03-29T08:38:25;99739.28;;;21.57
12430;BMP280;6279;42.192;24.326;2023-03-29T08:40:51;99740.53;;;20.46
12430;BMP280;6279;42.192;24.326;2023-03-29T08:43:25;99739.91;;;21.35
12430;BMP280;6279;42.192;24.326;2023-03-29T08:46:09;99724.91;;;21.88
12430;BMP280;6279;42.192;24.326;2023-03-29T08:48:49;99745.34;;;20.92
12430;BMP280;6279;42.192;24.326;2023-03-29T08:51:21;99729.53;;;22.10
12430;BMP280;6279;42.192;24.326;2023-03-29T08:53:53;99724.59;;;21.13
12430;BMP280;6279;42.192;24.326;2023-03-29T08:56:22;99733.28;;;21.44
12430;BMP280;6279;42.192;24.326;2023-03-29T08:58:50;99718.69;;;22.29
12430;BMP280;6279;42.192;24.326;2023-03-29T09:01:16;99727.53;;;22.23
12430;BMP280;6279;42.192;24.326;2023-03-29T09:06:39;99728.09;;;22.43
12430;BMP280;6279;42.192;24.326;2023-03-29T09:09:12;99732.03;;;21.88
12430;BMP280;6279;42.192;24.326;2023-03-29T09:14:32;99717.50;;;22.43
12430;BMP280;6279;42.192;24.326;2023-03-29T09:17:33;99704.53;;;22.93
12430;BMP280;6279;42.192;24.326;2023-03-29T09:20:21;99710.28;;;22.03
12430;BMP280;6279;42.192;24.326;2023-03-29T09:23:14;99704.97;;;21.86
12430;BMP280;6279;42.192;24.326;2023-03-29T09:25:47;99692.31;;;22.05
12430;BMP280;6279;42.192;24.326;2023-03-29T09:28:29;99706.06;;;22.14
12430;BMP280;6279;42.192;24.326;2023-03-29T09:31:13;99705.91;;;20.54
12430;BMP280;6279;42.192;24.326;2023-03-29T09:33:44;99714.13;;;20.40
12430;BMP280;6279;42.192;24.326;2023-03-29T09:36:17;99712.78;;;20.24
12430;BMP280;6279;42.192;24.326;2023-03-29T09:38:46;99710.03;;;20.37
12430;BMP280;6279;42.192;24.326;2023-03-29T09:41:24;99690.97;;;22.14
12430;BMP280;6279;42.192;24.326;2023-03-29T09:43:53;99698.59;;;22.40
12430;BMP280;6279;42.192;24.326;2023-03-29T09:46:29;99713.63;;;21.09
12430;BMP280;6279;42.192;24.326;2023-03-29T09:48:55;99700.69;;;21.50
12430;BMP280;6279;42.192;24.326;2023-03-29T09:51:24;99695.91;;;22.11
12430;BMP280;6279;42.192;24.326;2023-03-29T09:53:51;99683.06;;;22.25
12430;BMP280;6279;42.192;24.326;2023-03-29T09:56:17;99673.88;;;21.40
12430;BMP280;6279;42.192;24.326;2023-03-29T09:58:43;99674.69;;;21.40
12430;BMP280;6279;42.192;24.326;2023-03-29T10:01:13;99683.09;;;21.13
12430;BMP280;6279;42.192;24.326;2023-03-29T10:03:40;99681.50;;;21.72
12430;BMP280;6279;42.192;24.326;2023-03-29T10:06:08;99678.56;;;22.84
12430;BMP280;6279;42.192;24.326;2023-03-29T10:08:49;99670.03;;;22.82
12430;BMP280;6279;42.192;24.326;2023-03-29T10:11:54;99680.22;;;21.56
12430;BMP280;6279;42.192;24.326;2023-03-29T10:14:35;99691.53;;;20.00
12430;BMP280;6279;42.192;24.326;2023-03-29T10:17:09;99680.69;;;20.15
12430;BMP280;6279;42.192;24.326;2023-03-29T10:19:36;99683.16;;;19.54
12430;BMP280;6279;42.192;24.326;2023-03-29T10:22:05;99659.06;;;20.91
12430;BMP280;6279;42.192;24.326;2023-03-29T10:24:32;99666.09;;;21.45
12430;BMP280;6279;42.192;24.326;2023-03-29T10:27:06;99656.69;;;21.31
12430;BMP280;6279;42.192;24.326;2023-03-29T10:29:37;99660.75;;;21.51
12430;BMP280;6279;42.192;24.326;2023-03-29T10:34:50;99647.75;;;22.71
12430;BMP280;6279;42.192;24.326;2023-03-29T10:37:17;99631.16;;;23.32
12430;BMP280;6279;42.192;24.326;2023-03-29T10:39:44;99639.81;;;22.94
12430;BMP280;6279;42.192;24.326;2023-03-29T10:42:15;99630.97;;;24.22
12430;BMP280;6279;42.192;24.326;2023-03-29T10:44:42;99644.09;;;23.17
12430;BMP280;6279;42.192;24.326;2023-03-29T10:47:16;99651.84;;;21.98
12430;BMP280;6279;42.192;24.326;2023-03-29T10:49:48;99647.84;;;22.07
12430;BMP280;6279;42.192;24.326;2023-03-29T10:52:15;99655.03;;;21.12
12430;BMP280;6279;42.192;24.326;2023-03-29T10:54:41;99650.31;;;20.66
12430;BMP280;6279;42.192;24.326;2023-03-29T10:57:07;99631.69;;;21.27
12430;BMP280;6279;42.192;24.326;2023-03-29T11:05:31;99609.50;;;22.50
12430;BMP280;6279;42.192;24.326;2023-03-29T11:08:21;99615.25;;;22.36
12430;BMP280;6279;42.192;24.326;2023-03-29T11:11:08;99613.75;;;21.99
12430;BMP280;6279;42.192;24.326;2023-03-29T11:13:48;99604.56;;;21.32
12430;BMP280;6279;42.192;24.326;2023-03-29T11:16:53;99609.16;;;21.18
12430;BMP280;6279;42.192;24.326;2023-03-29T11:30:24;99569.44;;;20.83
12430;BMP280;6279;42.192;24.326;2023-03-29T11:33:17;99567.78;;;20.10
12430;BMP280;6279;42.192;24.326;2023-03-29T11:38:38;99586.53;;;17.69
12430;BMP280;6279;42.192;24.326;2023-03-29T11:41:26;99555.63;;;19.10
12430;BMP280;6279;42.192;24.326;2023-03-29T11:44:01;99557.47;;;19.10
12430;BMP280;6279;42.192;24.326;2023-03-29T11:46:38;99564.00;;;18.38
12430;BMP280;6279;42.192;24.326;2023-03-29T11:49:31;99548.78;;;18.90
12430;BMP280;6279;42.192;24.326;2023-03-29T11:54:40;99543.47;;;19.59
12430;BMP280;6279;42.192;24.326;2023-03-29T11:57:13;99556.22;;;19.19
12430;BMP280;6279;42.192;24.326;2023-03-29T12:02:25;99557.06;;;19.07
12430;BMP280;6279;42.192;24.326;2023-03-29T12:04:55;99543.94;;;19.50
12430;BMP280;6279;42.192;24.326;2023-03-29T12:07:32;99545.22;;;19.34
12430;BMP280;6279;42.192;24.326;2023-03-29T12:12:45;99538.09;;;18.60
12430;BMP280;6279;42.192;24.326;2023-03-29T12:15:16;99534.88;;;18.26
12430;BMP280;6279;42.192;24.326;2023-03-29T12:18:16;99524.13;;;18.28
12430;BMP280;6279;42.192;24.326;2023-03-29T12:20:48;99524.44;;;17.87
12430;BMP280;6279;42.192;24.326;2023-03-29T12:23:15;99524.31;;;18.33
12430;BMP280;6279;42.192;24.326;2023-03-29T12:40:19;99532.13;;;17.17
12430;BMP280;6279;42.192;24.326;2023-03-29T12:42:52;99539.09;;;16.70
12430;BMP280;6279;42.192;24.326;2023-03-29T12:45:27;99535.16;;;16.54
12430;BMP280;6279;42.192;24.326;2023-03-29T12:47:54;99539.78;;;16.52
12430;BMP280;6279;42.192;24.326;2023-03-29T12:50:50;99530.19;;;16.11
12430;BMP280;6279;42.192;24.326;2023-03-29T12:53:24;99516.13;;;16.46
12430;BMP280;6279;42.192;24.326;2023-03-29T12:58:54;99537.47;;;16.16
12430;BMP280;6279;42.192;24.326;2023-03-29T13:01:31;99532.69;;;15.64
12430;BMP280;6279;42.192;24.326;2023-03-29T13:06:31;99531.75;;;15.36
12430;BMP280;6279;42.192;24.326;2023-03-29T13:09:17;99539.75;;;15.29
12430;BMP280;6279;42.192;24.326;2023-03-29T13:11:51;99533.25;;;15.25
12430;BMP280;6279;42.192;24.326;2023-03-29T13:14:23;99517.72;;;15.58
12430;BMP280;6279;42.192;24.326;2023-03-29T13:16:50;99530.31;;;15.69
12430;BMP280;6279;42.192;24.326;2023-03-29T13:25:00;99536.78;;;15.17
12430;BMP280;6279;42.192;24.326;2023-03-29T13:35:53;99536.13;;;15.30
12430;BMP280;6279;42.192;24.326;2023-03-29T13:38:25;99527.72;;;15.34
12430;BMP280;6279;42.192;24.326;2023-03-29T13:48:28;99518.59;;;15.30
12430;BMP280;6279;42.192;24.326;2023-03-29T13:50:58;99509.31;;;15.13
12430;BMP280;6279;42.192;24.326;2023-03-29T13:56:28;99527.50;;;14.87
12430;BMP280;6279;42.192;24.326;2023-03-29T13:59:08;99528.19;;;14.81
12430;BMP280;6279;42.192;24.326;2023-03-29T14:01:40;99523.13;;;14.79
12430;BMP280;6279;42.192;24.326;2023-03-29T14:04:13;99539.03;;;14.78
12430;BMP280;6279;42.192;24.326;2023-03-29T14:06:44;99529.09;;;14.73
12430;BMP280;6279;42.192;24.326;2023-03-29T14:09:12;99521.31;;;14.80
12430;BMP280;6279;42.192;24.326;2023-03-29T14:11:43;99531.00;;;14.93
12430;BMP280;6279;42.192;24.326;2023-03-29T14:14:10;99536.16;;;15.01
12430;BMP280;6279;42.192;24.326;2023-03-29T14:16:37;99538.41;;;14.90
12430;BMP280;6279;42.192;24.326;2023-03-29T14:19:10;99526.75;;;14.78
12430;BMP280;6279;42.192;24.326;2023-03-29T14:21:39;99533.06;;;14.84
12430;BMP280;6279;42.192;24.326;2023-03-29T14:24:10;99514.91;;;14.96
12430;BMP280;6279;42.192;24.326;2023-03-29T14:26:37;99532.72;;;15.01
12430;BMP280;6279;42.192;24.326;2023-03-29T14:29:05;99527.50;;;14.87
12430;BMP280;6279;42.192;24.326;2023-03-29T14:31:36;99534.25;;;14.95
12430;BMP280;6279;42.192;24.326;2023-03-29T14:34:04;99536.34;;;14.86
12430;BMP280;6279;42.192;24.326;2023-03-29T14:36:31;99537.06;;;15.08
12430;BMP280;6279;42.192;24.326;2023-03-29T14:39:22;99535.63;;;15.20
12430;BMP280;6279;42.192;24.326;2023-03-29T14:41:51;99535.06;;;14.82
12430;BMP280;6279;42.192;24.326;2023-03-29T14:44:19;99540.69;;;15.07
12430;BMP280;6279;42.192;24.326;2023-03-29T14:46:48;99529.19;;;15.22
12430;BMP280;6279;42.192;24.326;2023-03-29T14:49:15;99536.44;;;15.20
12430;BMP280;6279;42.192;24.326;2023-03-29T14:51:42;99533.34;;;15.17
12430;BMP280;6279;42.192;24.326;2023-03-29T14:54:16;99537.88;;;15.09
12430;BMP280;6279;42.192;24.326;2023-03-29T14:56:44;99544.38;;;14.70
12430;BMP280;6279;42.192;24.326;2023-03-29T14:59:34;99543.97;;;14.30
12430;BMP280;6279;42.192;24.326;2023-03-29T15:02:00;99552.53;;;14.39
12430;BMP280;6279;42.192;24.326;2023-03-29T15:04:35;99544.88;;;14.37
12430;BMP280;6279;42.192;24.326;2023-03-29T15:07:02;99540.94;;;14.19
12430;BMP280;6279;42.192;24.326;2023-03-29T15:09:31;99535.97;;;14.24
12430;BMP280;6279;42.192;24.326;2023-03-29T15:11:59;99538.38;;;14.33
12430;BMP280;6279;42.192;24.326;2023-03-29T15:14:28;99548.03;;;14.47
12430;BMP280;6279;42.192;24.326;2023-03-29T15:17:04;99552.13;;;14.49
12430;BMP280;6279;42.192;24.326;2023-03-29T15:19:30;99548.47;;;14.36
12430;BMP280;6279;42.192;24.326;2023-03-29T15:22:01;99556.50;;;14.35
12430;BMP280;6279;42.192;24.326;2023-03-29T15:24:29;99559.06;;;14.21
12430;BMP280;6279;42.192;24.326;2023-03-29T15:27:18;99555.97;;;13.73
12430;BMP280;6279;42.192;24.326;2023-03-29T15:29:44;99568.28;;;13.35
12430;BMP280;6279;42.192;24.326;2023-03-29T15:32:30;99565.97;;;13.10
12430;BMP280;6279;42.192;24.326;2023-03-29T15:35:03;99571.91;;;12.89
12430;BMP280;6279;42.192;24.326;2023-03-29T15:37:29;99575.03;;;12.76
12430;BMP280;6279;42.192;24.326;2023-03-29T15:39:55;99583.38;;;12.56
12430;BMP280;6279;42.192;24.326;2023-03-29T15:42:21;99587.13;;;12.46
12430;BMP280;6279;42.192;24.326;2023-03-29T15:44:46;99584.88;;;12.35
